Time;durP1;ratioP1;P1;durP2;ratioP2;P2;SDS_P1;SDS_P2;PMS_P1;PMS_P2;Temp;Humidity;BMP_temperature;BMP_pressure;BME280_temperature;BME280_humidity;BME280_pressure;Samples;Min_cycle;Max_cycle;Signal;HPM_P1;HPM_P2
2021/10/25 00:00:41;;;;;;;;;2.00;2.00;;;;;10.74;61.94;101606.16;5103482;27;45356;-78
2021/10/25 00:03:07;;;;;;;;;0.75;0.75;;;;;10.86;61.85;101636.81;5098627;27;45670;-78
2021/10/25 00:05:32;;;;;;;;;2.50;1.00;;;;;10.82;62.09;101639.31;5064785;28;45246;-78
2021/10/25 00:07:57;;;;;;;;;1.00;0.25;;;;;10.79;61.77;101626.22;5082625;28;45248;-78
2021/10/25 00:10:23;;;;;;;;;1.00;1.00;;;;;10.77;61.95;101626.16;5082697;28;45219;-78
2021/10/25 00:12:48;;;;;;;;;2.25;2.25;;;;;10.65;62.16;101598.13;5066178;27;45585;-78
2021/10/25 00:15:14;;;;;;;;;1.00;1.00;;;;;10.76;62.17;101627.03;5103510;27;45392;-78
2021/10/25 00:17:39;;;;;;;;;1.00;1.00;;;;;10.72;62.29;101628.66;5103190;27;45653;-78
2021/10/25 00:20:07;;;;;;;;;1.00;1.00;;;;;10.69;62.26;101625.13;5084775;27;45335;-78
2021/10/25 00:22:32;;;;;;;;;1.00;1.00;;;;;10.41;62.38;101583.69;5103291;27;45374;-79
2021/10/25 00:24:58;;;;;;;;;2.00;2.00;;;;;10.55;62.39;101614.38;5081306;27;45734;-78
2021/10/25 00:27:23;;;;;;;;;2.75;2.75;;;;;10.49;62.53;101612.53;5082584;28;45367;-78
2021/10/25 00:29:49;;;;;;;;;3.00;2.75;;;;;10.42;62.63;101606.28;5082830;28;45159;-78
2021/10/25 00:32:14;;;;;;;;;0.25;0.25;;;;;10.50;62.61;101629.91;5078926;28;45212;-78
2021/10/25 00:34:40;;;;;;;;;1.00;1.00;;;;;10.42;62.67;101608.00;5082620;28;45526;-78
2021/10/25 00:37:05;;;;;;;;;2.50;2.50;;;;;10.44;62.68;101599.38;5086262;28;45243;-78
2021/10/25 00:39:31;;;;;;;;;0.25;0.25;;;;;10.53;62.76;101611.75;5085844;28;45208;-78
2021/10/25 00:41:58;;;;;;;;;2.00;2.00;;;;;10.37;62.73;101585.34;5086176;28;45266;-78
2021/10/25 00:44:26;;;;;;;;;1.25;0.50;;;;;10.24;62.73;101563.38;5084507;28;45596;-78
2021/10/25 00:46:51;;;;;;;;;1.00;1.00;;;;;10.35;62.62;101591.38;5085780;28;45354;-78
2021/10/25 00:49:17;;;;;;;;;3.25;2.00;;;;;10.25;62.54;101572.94;5085761;28;45269;-78
2021/10/25 00:51:43;;;;;;;;;1.00;1.00;;;;;10.20;62.63;101571.94;5086146;28;45342;-78
2021/10/25 00:54:09;;;;;;;;;2.00;1.00;;;;;10.19;62.75;101585.78;5085698;28;45261;-78
2021/10/25 00:56:39;;;;;;;;;1.00;0.75;;;;;10.23;62.65;101582.41;5085680;28;45222;-78
2021/10/25 00:59:04;;;;;;;;;0.75;0.75;;;;;10.36;62.95;101599.19;5085958;28;45382;-78
2021/10/25 01:01:29;;;;;;;;;0.75;0.75;;;;;10.22;62.67;101577.16;5085877;28;45278;-78
2021/10/25 01:03:55;;;;;;;;;2.00;2.00;;;;;10.21;62.71;101578.91;5085688;28;45648;-78
2021/10/25 01:06:20;;;;;;;;;1.50;0.75;;;;;10.22;62.21;101579.78;5085656;28;46003;-78
2021/10/25 01:08:46;;;;;;;;;2.00;1.00;;;;;10.29;62.45;101583.41;5085532;28;45332;-78
2021/10/25 01:11:12;;;;;;;;;1.00;1.00;;;;;10.29;62.46;101586.88;5085858;28;45266;-78
2021/10/25 01:13:39;;;;;;;;;0.00;0.00;;;;;10.29;62.30;101575.59;5085297;28;45388;-78
2021/10/25 01:16:05;;;;;;;;;1.50;1.50;;;;;10.42;62.15;101594.97;5085380;28;45291;-78
2021/10/25 01:18:31;;;;;;;;;1.75;1.75;;;;;10.47;62.21;101604.69;5085508;28;45194;-78
2021/10/25 01:20:56;;;;;;;;;1.75;1.75;;;;;10.42;62.21;101600.19;5085417;28;45467;-78
2021/10/25 01:23:22;;;;;;;;;1.00;1.00;;;;;10.31;62.16;101586.91;5080104;28;45198;-78
2021/10/25 01:25:49;;;;;;;;;0.00;0.00;;;;;10.29;61.80;101583.41;5064769;28;46204;-78
2021/10/25 01:28:14;;;;;;;;;2.00;2.00;;;;;10.23;62.21;101573.75;5065223;28;45506;-78
2021/10/25 01:30:40;;;;;;;;;1.25;1.25;;;;;10.37;62.05;101597.47;5065003;28;45350;-78
2021/10/25 01:33:10;;;;;;;;;0.50;0.50;;;;;10.44;62.28;101625.41;5075941;28;45370;-78
2021/10/25 01:35:36;;;;;;;;;0.75;0.75;;;;;9.90;62.29;101526.16;5064768;28;45410;-78
2021/10/25 01:38:01;;;;;;;;;1.25;0.00;;;;;10.34;61.97;101587.88;5064577;28;45452;-78
2021/10/25 01:40:27;;;;;;;;;0.75;0.75;;;;;10.49;62.19;101603.00;5065110;28;45144;-78
2021/10/25 01:42:52;;;;;;;;;3.50;1.50;;;;;10.62;61.77;101622.38;5042789;28;45209;-78
2021/10/25 01:45:19;;;;;;;;;0.00;0.00;;;;;10.63;61.83;101618.94;5083225;28;45451;-78
2021/10/25 01:47:44;;;;;;;;;1.75;0.25;;;;;10.61;61.85;101607.63;5085063;28;45424;-78
2021/10/25 01:50:10;;;;;;;;;1.00;1.00;;;;;10.74;61.65;101618.28;5083225;28;45266;-78
2021/10/25 01:52:36;;;;;;;;;0.00;0.00;;;;;10.66;61.65;101596.41;5085450;28;45422;-78
2021/10/25 01:55:03;;;;;;;;;2.00;0.50;;;;;10.56;61.56;101567.56;5084615;28;45708;-78
2021/10/25 01:57:29;;;;;;;;;1.00;1.00;;;;;10.74;61.32;101592.25;5084879;28;45242;-78
2021/10/25 01:59:54;;;;;;;;;0.75;0.75;;;;;10.75;61.24;101588.81;5083676;28;45624;-78
2021/10/25 02:02:21;;;;;;;;;1.00;1.00;;;;;10.96;61.16;101608.34;5085210;28;45203;-78
2021/10/25 02:04:46;;;;;;;;;0.25;0.25;;;;;10.79;61.22;101576.72;5084591;28;46134;-78
2021/10/25 02:07:12;;;;;;;;;1.00;1.00;;;;;10.88;60.82;101584.75;5084688;28;45177;-78
2021/10/25 02:09:37;;;;;;;;;0.00;0.00;;;;;11.01;60.82;101591.06;5080551;28;45223;-78
2021/10/25 02:12:03;;;;;;;;;0.50;0.50;;;;;10.91;60.71;101577.00;5085151;28;45417;-78
2021/10/25 02:14:28;;;;;;;;;0.75;0.75;;;;;10.83;60.82;101568.13;5083116;28;47749;-78
2021/10/25 02:16:54;;;;;;;;;0.75;0.75;;;;;10.92;60.49;101562.22;5084516;28;45334;-78
2021/10/25 02:19:19;;;;;;;;;1.75;1.25;;;;;11.06;60.63;101586.84;5084369;28;45586;-78
2021/10/25 02:21:45;;;;;;;;;1.00;1.00;;;;;11.01;60.31;101578.94;5083573;28;45254;-78
2021/10/25 02:24:10;;;;;;;;;0.75;0.75;;;;;11.10;60.36;101591.28;5083960;28;45291;-78
2021/10/25 02:26:36;;;;;;;;;0.75;0.75;;;;;10.92;60.52;101562.22;5084439;28;45258;-78
2021/10/25 02:29:02;;;;;;;;;3.25;1.25;;;;;11.06;60.42;101592.06;5082972;28;45425;-78
2021/10/25 02:31:27;;;;;;;;;1.00;1.00;;;;;10.93;60.47;101569.22;5084603;28;45298;-78
2021/10/25 02:33:52;;;;;;;;;0.00;0.00;;;;;11.04;60.50;101585.94;5084307;28;46134;-77
2021/10/25 02:36:18;;;;;;;;;1.00;1.00;;;;;10.96;60.76;101580.56;5084311;28;45275;-78
2021/10/25 02:38:43;;;;;;;;;0.25;0.00;;;;;10.87;60.52;101557.81;5061436;28;45380;-78
2021/10/25 02:41:10;;;;;;;;;1.00;1.00;;;;;10.99;60.22;101588.44;5063134;28;45415;-78
2021/10/25 02:43:36;;;;;;;;;1.00;1.00;;;;;10.94;60.52;101571.84;5062598;28;46121;-78
2021/10/25 02:46:02;;;;;;;;;0.00;0.00;;;;;11.06;60.60;101586.84;5063782;28;45177;-78
2021/10/25 02:48:27;;;;;;;;;0.50;0.50;;;;;11.04;60.22;101570.31;5064058;28;45340;-78
2021/10/25 02:50:54;;;;;;;;;2.00;1.00;;;;;11.10;60.28;101567.81;5080409;28;45223;-78
2021/10/25 02:53:20;;;;;;;;;2.75;2.00;;;;;11.13;60.41;101570.50;5082988;28;46162;-78
2021/10/25 02:55:47;;;;;;;;;2.00;0.25;;;;;11.09;60.23;101558.22;5082921;28;45298;-76
2021/10/25 02:58:13;;;;;;;;;1.00;1.00;;;;;11.12;60.23;101553.06;5083993;28;45319;-76
2021/10/25 03:00:38;;;;;;;;;0.00;0.00;;;;;11.22;60.24;101555.88;5081136;28;45369;-76
2021/10/25 03:03:03;;;;;;;;;0.00;0.00;;;;;11.15;60.02;101547.94;5083261;28;45341;-76
2021/10/25 03:05:29;;;;;;;;;1.50;0.00;;;;;11.11;60.01;101545.22;5083740;28;45281;-78
2021/10/25 03:07:54;;;;;;;;;1.50;1.00;;;;;11.20;60.15;101558.44;5083774;28;45144;-75
2021/10/25 03:10:20;;;;;;;;;0.00;0.00;;;;;11.08;60.03;101532.13;5083960;28;45292;-78
2021/10/25 03:12:46;;;;;;;;;2.00;1.00;;;;;11.14;59.70;101538.38;5083665;28;45862;-75
2021/10/25 03:15:12;;;;;;;;;2.50;1.00;;;;;11.19;59.97;101556.69;5064716;28;45461;-75
2021/10/25 03:17:37;;;;;;;;;1.00;1.00;;;;;10.92;59.95;101507.50;5083278;28;45224;-78
2021/10/25 03:20:04;;;;;;;;;1.00;1.00;;;;;10.99;60.28;101523.31;5083824;28;45215;-76
2021/10/25 03:22:30;;;;;;;;;4.00;1.00;;;;;11.17;60.79;101557.50;5083498;28;46510;-76
2021/10/25 03:24:55;;;;;;;;;0.00;0.00;;;;;11.17;61.26;101565.31;5077845;28;45471;-78
2021/10/25 03:27:21;;;;;;;;;0.00;0.00;;;;;11.00;61.01;101534.63;5083476;28;45364;-76
2021/10/25 03:29:47;;;;;;;;;1.00;1.00;;;;;11.16;61.80;101567.06;5083617;28;45319;-78
2021/10/25 03:32:13;;;;;;;;;2.00;1.00;;;;;11.02;61.59;101549.44;5082918;28;45366;-76
2021/10/25 03:34:39;;;;;;;;;0.00;0.00;;;;;11.09;61.80;101546.94;5083009;28;45389;-76
2021/10/25 03:37:05;;;;;;;;;0.00;0.00;;;;;11.17;62.04;101562.69;5083258;28;45215;-76
2021/10/25 03:39:33;;;;;;;;;0.50;0.50;;;;;11.04;62.28;101539.03;5082940;28;45741;-77
2021/10/25 03:42:01;;;;;;;;;1.00;1.00;;;;;11.06;62.21;101534.75;5083258;28;45382;-76
2021/10/25 03:44:48;;;;;;;;;0.00;0.00;;;;;11.22;62.20;101553.25;5082605;28;45332;-76
2021/10/25 03:47:22;;;;;;;;;0.00;0.00;;;;;11.06;62.76;101536.47;5083102;28;45287;-76
2021/10/25 03:52:28;;;;;;;;;1.25;0.00;;;;;11.21;62.79;101554.97;5081812;28;45232;-76
2021/10/25 03:55:10;;;;;;;;;4.25;1.00;;;;;11.00;63.04;101526.81;5074932;28;45536;-76
2021/10/25 04:25:23;;;;;;;;;0.50;0.50;;;;;10.87;65.63;101525.66;5082432;28;45356;-76
2021/10/25 04:27:17;;;;;;;;;0.00;0.00;;;;;10.69;65.93;101516.63;5054078;28;45464;-77
2021/10/25 04:29:46;;;;;;;;;1.50;1.00;;;;;10.90;66.86;101555.25;5041367;28;45369;-77
2021/10/25 04:32:11;;;;;;;;;0.00;0.00;;;;;10.94;66.57;101551.00;5047837;28;46114;-76
2021/10/25 04:34:37;;;;;;;;;0.00;0.00;;;;;10.81;66.87;101531.63;5051508;28;45422;-76
2021/10/25 04:37:02;;;;;;;;;1.25;1.25;;;;;10.86;66.66;101530.00;5051605;28;45228;-77
2021/10/25 04:39:28;;;;;;;;;0.00;0.00;;;;;10.83;66.77;101535.16;5060416;28;45299;-77
2021/10/25 04:41:54;;;;;;;;;0.00;0.00;;;;;10.96;67.04;101548.44;5062265;28;45546;-77
2021/10/25 04:44:19;;;;;;;;;0.25;0.25;;;;;10.76;67.19;101508.09;5061405;28;45430;-77
2021/10/25 04:46:44;;;;;;;;;0.00;0.00;;;;;10.78;67.43;101508.13;5055895;28;45272;-77
2021/10/25 04:49:10;;;;;;;;;1.00;1.00;;;;;10.68;67.32;101504.47;5041714;28;45288;-77
2021/10/25 04:51:35;;;;;;;;;1.00;1.00;;;;;10.74;67.41;101514.13;5049659;28;45374;-77
2021/10/25 04:54:01;;;;;;;;;1.00;1.00;;;;;10.71;67.44;101511.44;5058739;28;46219;-78
2021/10/25 04:56:27;;;;;;;;;1.00;1.00;;;;;10.69;67.89;101514.00;5060434;28;45364;-78
2021/10/25 04:58:53;;;;;;;;;0.75;0.75;;;;;10.48;68.02;101481.47;5061676;28;45361;-77
2021/10/25 05:01:18;;;;;;;;;0.00;0.00;;;;;10.83;68.23;101529.94;5050554;28;45485;-76
2021/10/25 05:03:44;;;;;;;;;1.00;1.00;;;;;10.85;68.13;101536.06;5041627;28;46169;-76
2021/10/25 05:06:16;;;;;;;;;1.00;1.00;;;;;10.86;68.43;101532.63;5041594;28;45273;-76
2021/10/25 05:08:41;;;;;;;;;0.50;0.50;;;;;10.82;68.58;101522.97;5056303;28;45911;-76
2021/10/25 05:11:07;;;;;;;;;0.00;0.00;;;;;10.88;69.08;101538.72;5052611;28;45543;-76
2021/10/25 05:13:33;;;;;;;;;2.25;0.00;;;;;10.89;69.01;101534.38;5061440;28;46311;-76
2021/10/25 05:15:59;;;;;;;;;0.25;0.25;;;;;10.80;69.27;101527.28;5060218;28;45302;-76
2021/10/25 05:18:24;;;;;;;;;1.00;1.00;;;;;10.73;69.75;101514.97;5051614;28;45272;-76
2021/10/25 05:20:50;;;;;;;;;6.75;1.50;;;;;10.85;70.25;101533.47;5057240;28;45451;-76
2021/10/25 05:23:15;;;;;;;;;1.50;1.50;;;;;10.76;70.22;101518.50;5056497;28;46300;-76
2021/10/25 05:25:41;;;;;;;;;2.00;0.00;;;;;10.63;70.40;101499.16;5072525;28;45407;-75
2021/10/25 05:28:07;;;;;;;;;1.25;0.50;;;;;10.89;70.62;101540.50;5067898;28;45257;-76
2021/10/25 05:30:32;;;;;;;;;0.75;0.75;;;;;10.87;69.98;101534.34;5064861;28;45375;-76
2021/10/25 05:32:58;;;;;;;;;0.00;0.00;;;;;10.69;70.71;101513.16;5068878;28;45824;-76
2021/10/25 05:35:24;;;;;;;;;1.25;0.00;;;;;10.82;70.45;101533.41;5083112;28;45251;-76
2021/10/25 05:37:49;;;;;;;;;1.00;1.00;;;;;10.82;71.15;101529.91;5081123;27;46676;-76
2021/10/25 05:40:15;;;;;;;;;0.75;0.75;;;;;10.82;70.63;101525.59;5071688;28;45432;-75
2021/10/25 05:42:41;;;;;;;;;0.50;0.50;;;;;10.68;71.03;101501.84;5083627;28;46195;-76
2021/10/25 05:45:06;;;;;;;;;2.00;0.25;;;;;10.79;70.65;101511.63;5074974;27;45389;-76
2021/10/25 05:47:32;;;;;;;;;0.50;0.50;;;;;10.69;70.72;101494.94;5072356;28;45336;-75
2021/10/25 05:49:58;;;;;;;;;0.00;0.00;;;;;10.71;70.72;101496.72;5072710;28;45443;-76
2021/10/25 05:52:24;;;;;;;;;1.00;1.00;;;;;10.55;70.60;101476.41;5073390;28;46333;-75
2021/10/25 05:54:50;;;;;;;;;1.00;1.00;;;;;10.58;70.16;101484.28;5071630;28;45353;-75
2021/10/25 05:57:16;;;;;;;;;0.50;0.25;;;;;10.66;70.79;101498.38;5076554;28;45349;-76
2021/10/25 05:59:42;;;;;;;;;0.25;0.00;;;;;10.66;70.42;101498.38;5078367;28;45494;-75
2021/10/25 06:02:22;;;;;;;;;1.25;1.25;;;;;10.66;70.34;101505.28;5060867;28;46806;-75
2021/10/25 06:04:48;;;;;;;;;0.75;0.75;;;;;10.56;70.42;101501.63;5084243;28;45477;-74
2021/10/25 06:07:13;;;;;;;;;0.50;0.50;;;;;10.50;70.62;101502.34;5084307;28;45324;-74
2021/10/25 06:09:39;;;;;;;;;4.00;1.00;;;;;10.38;70.66;101477.78;5083607;28;45278;-74
2021/10/25 06:12:12;;;;;;;;;3.00;0.75;;;;;10.54;70.87;101513.72;5084108;28;46132;-74
2021/10/25 06:14:41;;;;;;;;;1.00;1.00;;;;;10.57;70.82;101508.56;5079231;28;45373;-75
2021/10/25 06:17:38;;;;;;;;;0.00;0.00;;;;;10.55;70.44;101497.25;5081421;28;45621;-75
2021/10/25 06:20:04;;;;;;;;;0.25;0.25;;;;;10.60;70.59;101504.28;5083356;28;45257;-76
2021/10/25 06:22:31;;;;;;;;;2.75;1.00;;;;;10.45;70.57;101478.84;5065212;28;45945;-75
2021/10/25 06:24:56;;;;;;;;;1.00;1.00;;;;;10.30;70.40;101462.84;5051768;28;45345;-79
2021/10/25 06:27:22;;;;;;;;;0.00;0.00;;;;;10.39;70.51;101489.94;5044764;28;45524;-77
2021/10/25 06:29:47;;;;;;;;;0.00;0.00;;;;;10.55;70.46;101521.56;5044510;28;45459;-75
2021/10/25 06:32:13;;;;;;;;;1.00;1.00;;;;;10.42;70.37;101509.97;5041467;28;47034;-77
2021/10/25 06:34:41;;;;;;;;;2.00;0.00;;;;;10.50;70.62;101524.06;5062377;28;45342;-76
2021/10/25 06:37:06;;;;;;;;;1.00;1.00;;;;;10.33;70.58;101509.75;5061291;28;45356;-76
2021/10/25 06:39:38;;;;;;;;;0.25;0.25;;;;;10.47;70.37;101534.41;5062047;28;45348;-76
2021/10/25 06:42:05;;;;;;;;;1.00;1.00;;;;;10.43;71.04;101539.47;5059260;28;47030;-76
2021/10/25 06:44:33;;;;;;;;;2.00;2.00;;;;;10.51;70.86;101541.44;5062170;28;45463;-76
2021/10/25 06:46:59;;;;;;;;;1.00;1.00;;;;;10.45;70.82;101535.19;5048883;28;45454;-77
2021/10/25 06:49:28;;;;;;;;;0.25;0.25;;;;;10.37;71.01;101516.78;5053604;28;45642;-77
2021/10/25 06:51:53;;;;;;;;;1.25;1.25;;;;;10.54;70.77;101551.06;5059633;28;45447;-76
2021/10/25 06:54:19;;;;;;;;;1.00;1.00;;;;;10.62;70.64;101559.00;5059264;28;45480;-78
2021/10/25 06:56:44;;;;;;;;;1.50;1.50;;;;;10.56;70.28;101538.06;5061219;28;45449;-76
2021/10/25 06:59:09;;;;;;;;;1.00;0.00;;;;;10.59;70.55;101539.00;5060646;28;45430;-76
2021/10/25 07:01:35;;;;;;;;;0.50;0.50;;;;;10.61;70.80;101536.44;5061226;28;45853;-77
2021/10/25 07:04:00;;;;;;;;;0.50;0.00;;;;;10.63;70.44;101529.53;5041561;28;45850;-79
2021/10/25 07:06:28;;;;;;;;;0.00;0.00;;;;;10.72;69.82;101544.47;5042915;28;45194;-78
2021/10/25 07:08:54;;;;;;;;;1.00;0.75;;;;;10.77;70.28;101542.84;5041310;28;46530;-78
2021/10/25 07:11:19;;;;;;;;;1.00;0.50;;;;;10.73;70.75;101539.31;5049973;28;45426;-79
2021/10/25 07:13:47;;;;;;;;;1.00;1.00;;;;;10.55;70.69;101500.72;5039449;28;45474;-81
2021/10/25 07:16:20;;;;;;;;;0.50;0.50;;;;;10.92;70.68;101557.91;5056544;28;45412;-75
2021/10/25 08:07:23;;;;;;;;;1.50;1.50;;;;;10.92;72.27;101563.13;5076847;28;45397;-77
2021/10/25 08:09:54;;;;;;;;;1.00;1.00;;;;;11.02;72.25;101588.50;5078259;28;45404;-76
2021/10/25 08:12:24;;;;;;;;;0.75;0.75;;;;;10.91;72.47;101571.78;5079152;28;45429;-76
2021/10/25 08:14:55;;;;;;;;;1.00;1.00;;;;;11.13;72.52;101600.88;5080852;27;45922;-76
2021/10/25 08:17:22;;;;;;;;;0.25;0.25;;;;;10.92;72.80;101551.81;5065859;28;45472;-76
2021/10/25 08:19:49;;;;;;;;;0.50;0.50;;;;;11.18;72.55;101596.63;5073904;28;45468;-76
2021/10/25 08:22:17;;;;;;;;;1.00;0.25;;;;;11.12;72.46;101581.75;5081428;28;45425;-77
2021/10/25 08:24:48;;;;;;;;;1.00;0.75;;;;;11.01;72.61;101559.81;5059643;28;47722;-76
2021/10/25 08:27:15;;;;;;;;;1.00;1.00;;;;;11.15;72.50;101573.13;5064064;28;45244;-76
2021/10/25 08:29:45;;;;;;;;;0.50;0.00;;;;;11.33;72.60;101587.38;5059693;28;45377;-76
2021/10/25 08:40:02;;;;;;;;;1.50;1.00;;;;;11.47;72.44;101583.28;5055097;27;45448;-77
2021/10/25 08:42:31;;;;;;;;;1.00;1.00;;;;;11.36;72.45;101564.81;5070821;28;45496;-76
2021/10/25 08:45:10;;;;;;;;;0.25;0.25;;;;;11.36;72.66;101556.16;5077033;27;46214;-78
2021/10/25 08:47:42;;;;;;;;;4.00;1.50;;;;;11.17;72.17;101511.47;5083818;27;45275;-78
2021/10/25 08:50:11;;;;;;;;;0.50;0.50;;;;;11.45;72.38;101555.44;5082671;27;45499;-77
2021/10/25 08:52:37;;;;;;;;;0.00;0.00;;;;;11.62;72.79;101576.59;5077086;28;45420;-76
2021/10/25 08:55:06;;;;;;;;;2.00;0.00;;;;;11.68;72.82;101583.63;5077565;28;45481;-77
2021/10/25 08:57:33;;;;;;;;;1.00;1.00;;;;;11.73;72.18;101582.84;5080954;28;45440;-77
2021/10/25 09:00:14;;;;;;;;;1.50;1.50;;;;;11.36;72.23;101514.44;5082554;28;45347;-77
2021/10/25 09:02:41;;;;;;;;;1.00;1.00;;;;;11.73;72.28;101571.56;5073829;28;45521;-77
2021/10/25 09:05:12;;;;;;;;;2.00;1.75;;;;;11.64;72.10;101557.50;5080982;27;48025;-77
2021/10/25 09:08:09;;;;;;;;;1.50;1.50;;;;;11.79;72.17;101576.88;5076536;28;45454;-77
2021/10/25 09:10:41;;;;;;;;;1.25;1.00;;;;;11.72;72.86;101565.47;5057537;28;45577;-77
2021/10/25 09:13:16;;;;;;;;;1.00;1.00;;;;;11.95;72.30;101575.41;5052297;28;45623;-76
2021/10/25 09:15:45;;;;;;;;;1.75;1.75;;;;;11.99;71.89;101563.28;5056084;28;48541;-77
2021/10/25 09:18:13;;;;;;;;;1.00;1.00;;;;;12.01;72.29;101564.19;5078437;28;45432;-77
2021/10/25 09:21:05;;;;;;;;;1.25;0.50;;;;;12.08;72.09;101550.41;5081849;27;45421;-77
2021/10/25 09:23:37;;;;;;;;;1.00;0.25;;;;;12.27;72.11;101545.47;5066896;28;45516;-77
2021/10/25 09:26:08;;;;;;;;;0.25;0.25;;;;;12.55;71.93;101564.13;5077406;27;46237;-77
2021/10/25 09:28:41;;;;;;;;;1.25;1.25;;;;;12.79;71.72;101565.31;5080352;28;45287;-78
2021/10/25 09:31:14;;;;;;;;;1.75;0.50;;;;;12.69;70.46;101524.25;5070508;28;45300;-77
2021/10/25 09:33:41;;;;;;;;;1.00;1.00;;;;;12.88;70.61;101551.47;5056748;28;45347;-77
2021/10/25 09:36:13;;;;;;;;;1.75;1.75;;;;;12.98;70.12;101565.53;5066704;28;45820;-78
2021/10/25 09:42:09;;;;;;;;;1.00;1.00;;;;;12.69;70.24;101526.88;5068741;28;45485;-76
2021/10/25 09:49:58;;;;;;;;;1.00;1.00;;;;;12.73;69.94;101544.31;5078088;27;45420;-77
2021/10/25 09:52:42;;;;;;;;;1.75;0.75;;;;;12.74;70.43;101549.56;5059561;28;45549;-78
2021/10/25 09:55:25;;;;;;;;;0.00;0.00;;;;;12.77;70.47;101533.09;5060981;27;45458;-77
2021/10/25 09:58:16;;;;;;;;;0.00;0.00;;;;;12.83;70.14;101540.13;5075914;27;46028;-78
2021/10/25 10:00:41;;;;;;;;;0.25;0.25;;;;;12.82;70.01;101538.34;5077601;28;45440;-78
2021/10/25 10:03:07;;;;;;;;;0.00;0.00;;;;;12.75;70.20;101538.28;5075557;28;45436;-78
2021/10/25 10:05:36;;;;;;;;;0.50;0.50;;;;;12.79;70.21;101547.91;5062113;28;45661;-76
2021/10/25 10:08:03;;;;;;;;;0.00;0.00;;;;;12.88;70.12;101560.22;5064081;28;48480;-77
2021/10/25 10:10:29;;;;;;;;;1.25;1.25;;;;;12.89;70.41;101555.84;5076358;28;45382;-77
2021/10/25 10:12:56;;;;;;;;;0.00;0.00;;;;;12.98;70.56;101565.53;5079470;27;45398;-81
2021/10/25 10:15:25;;;;;;;;;1.00;0.75;;;;;13.01;70.39;101557.72;5075791;28;45465;-82
2021/10/25 10:17:56;;;;;;;;;0.00;0.00;;;;;13.01;70.22;101555.13;5071597;28;45499;-79
2021/10/25 10:20:27;;;;;;;;;2.00;2.00;;;;;13.09;70.02;101563.06;5060642;28;45485;-79
2021/10/25 10:22:56;;;;;;;;;0.75;0.75;;;;;13.08;69.99;101563.91;5072141;28;45286;-78
2021/10/25 10:25:37;;;;;;;;;1.00;1.00;;;;;13.20;70.37;101586.72;5077286;28;45351;-79
2021/10/25 10:28:09;;;;;;;;;2.50;2.00;;;;;13.19;69.93;101567.53;5082013;28;46241;-78
2021/10/25 10:30:51;;;;;;;;;1.25;1.25;;;;;13.27;69.72;101573.72;5064409;28;45420;-78
2021/10/25 10:33:17;;;;;;;;;0.50;0.50;;;;;13.13;70.10;101533.47;5057683;28;45591;-78
2021/10/25 10:35:45;;;;;;;;;1.75;0.75;;;;;13.51;69.84;101572.25;5064013;28;45485;-78
2021/10/25 10:38:11;;;;;;;;;0.50;0.00;;;;;13.74;69.69;101583.78;5081219;28;45367;-78
2021/10/25 10:40:39;;;;;;;;;1.25;1.00;;;;;13.87;69.37;101590.03;5054991;28;45430;-78
2021/10/25 10:43:27;;;;;;;;;0.75;0.75;;;;;13.80;68.94;101581.22;5080815;28;45242;-79
2021/10/25 10:46:01;;;;;;;;;1.75;1.00;;;;;13.73;68.95;101589.88;5061718;28;45254;-78
2021/10/25 10:48:30;;;;;;;;;2.00;1.00;;;;;13.67;69.10;101590.72;5056607;27;45663;-76
2021/10/25 10:51:05;;;;;;;;;0.00;0.00;;;;;13.54;69.15;101577.50;5078072;28;45275;-78
2021/10/25 10:53:39;;;;;;;;;2.00;2.00;;;;;13.30;68.95;101547.59;5078680;28;45384;-77
2021/10/25 10:56:20;;;;;;;;;0.75;0.75;;;;;13.15;69.39;101545.72;5080865;28;45479;-78
2021/10/25 10:58:51;;;;;;;;;2.75;0.75;;;;;13.11;69.83;101569.19;5063343;28;47395;-76
2021/10/25 11:01:16;;;;;;;;;0.00;0.00;;;;;12.73;70.94;101540.00;5081948;28;45417;-76
2021/10/25 11:03:42;;;;;;;;;0.50;0.00;;;;;12.81;71.58;101584.50;5045748;28;45371;-78
2021/10/25 11:06:10;;;;;;;;;0.50;0.50;;;;;12.62;71.86;101573.81;5059844;28;45345;-79
2021/10/25 11:08:36;;;;;;;;;0.00;0.00;;;;;12.67;72.26;101603.50;5077015;28;46111;-78
2021/10/25 11:11:08;;;;;;;;;0.75;0.75;;;;;12.64;72.38;101603.44;5081678;28;45275;-80
2021/10/25 11:13:41;;;;;;;;;0.00;0.00;;;;;12.03;73.19;101505.94;5082717;28;45474;-78
2021/10/25 11:16:34;;;;;;;;;0.50;0.50;;;;;12.58;72.85;101585.06;5062593;28;45580;-78
2021/10/25 11:19:02;;;;;;;;;1.50;0.25;;;;;12.70;72.96;101597.41;5079925;28;46109;-78
2021/10/25 11:21:34;;;;;;;;;0.75;0.25;;;;;12.66;73.22;101590.41;5081482;28;45385;-78
2021/10/25 11:24:05;;;;;;;;;0.00;0.00;;;;;12.48;73.07;101573.63;5073479;27;45735;-78
2021/10/25 11:26:37;;;;;;;;;0.25;0.25;;;;;12.65;73.09;101594.75;5061229;28;45446;-79
2021/10/25 11:29:05;;;;;;;;;0.00;0.00;;;;;12.67;73.10;101597.38;5059915;28;45609;-78
2021/10/25 11:31:34;;;;;;;;;0.00;0.00;;;;;12.69;72.93;101595.69;5042969;28;45767;-79
2021/10/25 11:34:00;;;;;;;;;0.00;0.00;;;;;12.63;72.71;101575.59;5077497;28;45177;-78
2021/10/25 11:36:29;;;;;;;;;0.00;0.00;;;;;12.57;73.14;101553.72;5061382;28;45418;-78
2021/10/25 11:38:57;;;;;;;;;0.50;0.50;;;;;12.85;72.61;101581.06;5052029;28;45630;-78
2021/10/25 11:41:22;;;;;;;;;0.00;0.00;;;;;12.79;72.85;101549.63;5059967;28;45377;-78
2021/10/25 11:43:48;;;;;;;;;0.50;0.50;;;;;13.04;72.72;101576.94;5043453;28;45186;-79
2021/10/25 11:46:23;;;;;;;;;0.50;0.25;;;;;12.93;72.21;101555.91;5060072;28;45268;-78
2021/10/25 11:48:58;;;;;;;;;0.25;0.25;;;;;13.02;72.50;101573.44;5055287;28;46971;-78
2021/10/25 11:51:24;;;;;;;;;0.00;0.00;;;;;13.03;72.28;101566.47;5055961;28;45454;-77
2021/10/25 11:53:55;;;;;;;;;0.00;0.00;;;;;13.01;72.16;101555.13;5058820;28;45319;-77
2021/10/25 11:56:20;;;;;;;;;0.50;0.50;;;;;13.07;72.16;101544.72;5059621;28;45355;-78
2021/10/25 11:58:46;;;;;;;;;0.25;0.25;;;;;13.19;72.15;101544.00;5058437;28;45940;-79
2021/10/25 12:01:14;;;;;;;;;0.00;0.00;;;;;13.21;71.81;101541.41;5056431;28;45443;-77
2021/10/25 12:03:40;;;;;;;;;0.00;0.00;;;;;13.46;71.47;101573.03;5052683;28;45567;-77
2021/10/25 12:06:21;;;;;;;;;0.00;0.00;;;;;13.42;71.38;101570.38;5058650;28;45684;-76
2021/10/25 12:09:02;;;;;;;;;0.00;0.00;;;;;13.43;71.64;101572.16;5079461;27;45651;-78
2021/10/25 12:14:22;;;;;;;;;0.00;0.00;;;;;13.35;71.74;101572.94;5079134;27;45483;-76
2021/10/25 12:16:49;;;;;;;;;0.00;0.00;;;;;13.33;71.46;101572.91;5075593;27;45481;-76
2021/10/25 12:19:16;;;;;;;;;0.75;0.75;;;;;13.32;71.76;101571.13;5079602;27;47136;-76
2021/10/25 12:21:42;;;;;;;;;1.75;0.50;;;;;13.35;71.88;101555.50;5078384;27;45709;-75
2021/10/25 12:24:09;;;;;;;;;0.00;0.00;;;;;13.39;71.72;101548.56;5074543;27;45483;-76
2021/10/25 12:26:36;;;;;;;;;0.00;0.00;;;;;13.59;71.61;101568.81;5038294;28;45440;-76
2021/10/25 12:29:33;;;;;;;;;0.00;0.00;;;;;13.61;71.55;101547.06;5060345;28;45423;-78
2021/10/25 12:32:08;;;;;;;;;0.00;0.00;;;;;13.60;71.15;101537.44;5061125;28;46838;-76
2021/10/25 12:34:44;;;;;;;;;0.00;0.00;;;;;13.67;71.15;101548.84;5062055;28;45378;-76
2021/10/25 12:37:18;;;;;;;;;0.00;0.00;;;;;13.73;71.02;101548.91;5060118;28;45433;-76
2021/10/25 12:39:43;;;;;;;;;0.00;0.00;;;;;13.71;71.11;101541.88;5040934;28;46006;-76
2021/10/25 12:42:09;;;;;;;;;0.00;0.00;;;;;13.71;70.86;101540.16;5058307;28;45481;-76
2021/10/25 12:44:36;;;;;;;;;1.00;0.00;;;;;13.76;71.03;101529.72;5078010;28;45369;-76
2021/10/25 12:47:14;;;;;;;;;2.00;0.00;;;;;13.90;70.97;101533.34;5049916;28;45221;-77
2021/10/25 12:49:44;;;;;;;;;1.00;0.00;;;;;14.02;70.86;101536.91;5053497;28;46186;-77
2021/10/25 12:52:11;;;;;;;;;1.00;1.00;;;;;14.13;70.37;101536.97;5059845;28;45449;-77
2021/10/25 12:54:39;;;;;;;;;0.00;0.00;;;;;13.94;70.19;101501.06;5076296;28;45541;-77
2021/10/25 12:57:38;;;;;;;;;0.00;0.00;;;;;14.28;69.95;101526.59;5052458;28;45449;-76
2021/10/25 13:00:13;;;;;;;;;0.25;0.25;;;;;14.28;69.69;101525.72;5022765;28;45518;-78
2021/10/25 13:02:42;;;;;;;;;0.00;0.00;;;;;14.30;69.60;101537.06;5067493;28;45368;-76
2021/10/25 13:05:16;;;;;;;;;0.00;0.00;;;;;14.26;69.39;101524.84;5062594;28;45372;-77
2021/10/25 13:07:53;;;;;;;;;0.00;0.00;;;;;14.19;69.56;101509.06;5057442;28;45430;-77